00:31
Airports
Links
Donate
Help keep this website running!
PayPal
Bitcoin
METAR
ENAT 242350Z AUTO 19003KT 9999 NCD 11/09 Q1019 RMK WIND 700FT 18005KT
Current Weather Conditions at ENAT
VFR 23:50:00 24-07-17
Automated station, no observer
Altimeter:30.09 hg
Temp:11.0°c 52°f
Dew point:9.0°c 48°f
Wind:3 knots, 3.5 mph, 2 m/s, from 190°
Visibility:6.21 statute miles
(CLR) Clear
Past METAR reports
VFR 22:50:00 24-07-17
Altimeter:30.12 hg
Temp:12.0°c 54°f
Dew point:9.0°c 48°f
Wind:3 knots, 3.5 mph, 2 m/s, from 210°
Visibility:6.21 statute miles
(CAVOK)
ENAT 242250Z 21003KT CAVOK 12/09 Q1020 RMK WIND 700FT 00000KT
VFR 21:50:00 24-07-17
Altimeter:30.12 hg
Temp:12.0°c 54°f
Dew point:10.0°c 50°f
Wind:0 knots, 0 mph, 0 m/s,
Variable direction
Visibility:6.21 statute miles
(CAVOK)
ENAT 242150Z 00000KT CAVOK 12/10 Q1020 RMK WIND 700FT VRB01KT
VFR 20:50:00 24-07-17
Altimeter:30.12 hg
Temp:15.0°c 59°f
Dew point:10.0°c 50°f
Wind:6 knots, 6.9 mph, 3 m/s, from 290°
Visibility:6.21 statute miles
(CAVOK)
ENAT 242050Z 29006KT CAVOK 15/10 Q1020 RMK WIND 700FT 32006KT
VFR 19:50:00 24-07-17
Altimeter:30.09 hg
Temp:15.0°c 59°f
Dew point:10.0°c 50°f
Wind:8 knots, 9.2 mph, 4 m/s, from 290°
Visibility:6.21 statute miles
(CAVOK)
ENAT 241950Z 29008KT CAVOK 15/10 Q1019 RMK WIND 700FT 32012KT
VFR 18:50:00 24-07-17
Altimeter:30.09 hg
Temp:16.0°c 61°f
Dew point:10.0°c 50°f
Wind:11 knots, 12.7 mph, 6 m/s, from 310°
Visibility:6.21 statute miles
(CAVOK)
ENAT 241850Z 31011KT CAVOK 16/10 Q1019 RMK WIND 700FT 31015KT
TAF
TAF ENAT 241700Z 2418/2502 30008KT CAVOK
Forecast at ENAT
18:00 24-07-17 to 02:00 25-07-17
NSW
Wind:8 Knots from 300°
Visibility:6.21 statute miles
NSC